sensor_id;sensor_type;location;lat;lon;timestamp;pressure;altitude;pressure_sealevel;temperature
85893;BMP280;76433;42.122;23.040;2024-03-22T00:00:00;97351.22;;;5.95
85893;BMP280;76433;42.122;23.040;2024-03-22T00:02:25;97356.63;;;5.91
85893;BMP280;76433;42.122;23.040;2024-03-22T00:04:50;97351.59;;;5.81
85893;BMP280;76433;42.122;23.040;2024-03-22T00:07:16;97350.94;;;5.77
85893;BMP280;76433;42.122;23.040;2024-03-22T00:09:41;97359.78;;;5.74
85893;BMP280;76433;42.122;23.040;2024-03-22T00:12:06;97352.06;;;5.63
85893;BMP280;76433;42.122;23.040;2024-03-22T00:14:53;97362.97;;;5.69
85893;BMP280;76433;42.122;23.040;2024-03-22T00:20:41;97356.06;;;5.71
85893;BMP280;76433;42.122;23.040;2024-03-22T00:23:06;97344.75;;;5.67
85893;BMP280;76433;42.122;23.040;2024-03-22T00:25:31;97357.44;;;5.76
85893;BMP280;76433;42.122;23.040;2024-03-22T00:27:57;97359.88;;;5.70
85893;BMP280;76433;42.122;23.040;2024-03-22T00:30:22;97348.00;;;5.58
85893;BMP280;76433;42.122;23.040;2024-03-22T00:32:48;97347.69;;;5.56
85893;BMP280;76433;42.122;23.040;2024-03-22T00:35:13;97353.31;;;5.58
85893;BMP280;76433;42.122;23.040;2024-03-22T00:37:38;97350.97;;;5.60
85893;BMP280;76433;42.122;23.040;2024-03-22T00:40:05;97348.66;;;5.63
85893;BMP280;76433;42.122;23.040;2024-03-22T00:42:31;97339.50;;;5.64
85893;BMP280;76433;42.122;23.040;2024-03-22T00:44:56;97349.81;;;5.61
85893;BMP280;76433;42.122;23.040;2024-03-22T00:47:23;97348.31;;;5.60
85893;BMP280;76433;42.122;23.040;2024-03-22T00:49:48;97343.72;;;5.48
85893;BMP280;76433;42.122;23.040;2024-03-22T00:52:13;97343.88;;;5.57
85893;BMP280;76433;42.122;23.040;2024-03-22T00:54:39;97355.13;;;5.61
85893;BMP280;76433;42.122;23.040;2024-03-22T00:57:05;97351.19;;;5.53
85893;BMP280;76433;42.122;23.040;2024-03-22T00:59:31;97357.66;;;5.52
85893;BMP280;76433;42.122;23.040;2024-03-22T01:01:56;97352.59;;;5.58
85893;BMP280;76433;42.122;23.040;2024-03-22T01:04:21;97350.97;;;5.60
85893;BMP280;76433;42.122;23.040;2024-03-22T01:06:47;97363.72;;;5.53
85893;BMP280;76433;42.122;23.040;2024-03-22T01:09:12;97348.38;;;5.44
85893;BMP280;76433;42.122;23.040;2024-03-22T01:11:37;97352.06;;;5.34
85893;BMP280;76433;42.122;23.040;2024-03-22T01:17:24;97353.06;;;5.24
85893;BMP280;76433;42.122;23.040;2024-03-22T01:23:11;97355.13;;;5.00
85893;BMP280;76433;42.122;23.040;2024-03-22T01:25:37;97347.44;;;4.89
85893;BMP280;76433;42.122;23.040;2024-03-22T01:31:24;97367.00;;;4.79
85893;BMP280;76433;42.122;23.040;2024-03-22T01:37:11;97369.13;;;4.68
85893;BMP280;76433;42.122;23.040;2024-03-22T01:42:58;97362.28;;;4.51
85893;BMP280;76433;42.122;23.040;2024-03-22T01:45:24;97363.94;;;4.45
85893;BMP280;76433;42.122;23.040;2024-03-22T01:47:51;97370.88;;;4.39
85893;BMP280;76433;42.122;23.040;2024-03-22T01:50:19;97364.56;;;4.33
85893;BMP280;76433;42.122;23.040;2024-03-22T01:52:45;97356.75;;;4.26
85893;BMP280;76433;42.122;23.040;2024-03-22T01:55:10;97353.06;;;4.19
85893;BMP280;76433;42.122;23.040;2024-03-22T01:57:36;97362.75;;;4.30
85893;BMP280;76433;42.122;23.040;2024-03-22T02:00:01;97366.22;;;4.27
85893;BMP280;76433;42.122;23.040;2024-03-22T02:02:28;97368.44;;;4.28
85893;BMP280;76433;42.122;23.040;2024-03-22T02:04:53;97376.81;;;4.27
85893;BMP280;76433;42.122;23.040;2024-03-22T02:07:18;97374.97;;;4.23
85893;BMP280;76433;42.122;23.040;2024-03-22T02:09:44;97370.47;;;4.20
85893;BMP280;76433;42.122;23.040;2024-03-22T02:12:09;97377.25;;;4.21
85893;BMP280;76433;42.122;23.040;2024-03-22T02:17:57;97369.13;;;4.12
85893;BMP280;76433;42.122;23.040;2024-03-22T02:23:44;97375.25;;;4.09
85893;BMP280;76433;42.122;23.040;2024-03-22T02:26:09;97364.84;;;3.99
85893;BMP280;76433;42.122;23.040;2024-03-22T02:28:35;97379.06;;;4.08
85893;BMP280;76433;42.122;23.040;2024-03-22T02:31:02;97381.72;;;4.08
85893;BMP280;76433;42.122;23.040;2024-03-22T02:33:28;97373.75;;;4.08
85893;BMP280;76433;42.122;23.040;2024-03-22T02:35:53;97373.47;;;4.22
85893;BMP280;76433;42.122;23.040;2024-03-22T02:38:19;97379.34;;;4.34
85893;BMP280;76433;42.122;23.040;2024-03-22T02:40:48;97378.53;;;4.37
85893;BMP280;76433;42.122;23.040;2024-03-22T02:46:36;97391.25;;;4.26
85893;BMP280;76433;42.122;23.040;2024-03-22T02:52:23;97380.75;;;3.99
85893;BMP280;76433;42.122;23.040;2024-03-22T02:58:10;97394.63;;;3.86
85893;BMP280;76433;42.122;23.040;2024-03-22T03:00:36;97392.47;;;3.78
85893;BMP280;76433;42.122;23.040;2024-03-22T03:03:02;97392.19;;;3.72
85893;BMP280;76433;42.122;23.040;2024-03-22T03:05:28;97379.34;;;3.71
85893;BMP280;76433;42.122;23.040;2024-03-22T03:07:53;97384.06;;;3.83
85893;BMP280;76433;42.122;23.040;2024-03-22T03:10:18;97392.25;;;3.92
85893;BMP280;76433;42.122;23.040;2024-03-22T03:12:44;97390.81;;;3.87
85893;BMP280;76433;42.122;23.040;2024-03-22T03:15:09;97391.34;;;3.79
85893;BMP280;76433;42.122;23.040;2024-03-22T03:17:34;97384.72;;;3.67
85893;BMP280;76433;42.122;23.040;2024-03-22T03:20:00;97402.88;;;3.69
85893;BMP280;76433;42.122;23.040;2024-03-22T03:22:25;97410.81;;;3.69
85893;BMP280;76433;42.122;23.040;2024-03-22T03:24:50;97397.28;;;3.63
85893;BMP280;76433;42.122;23.040;2024-03-22T03:27:16;97406.38;;;3.62
85893;BMP280;76433;42.122;23.040;2024-03-22T03:29:41;97401.41;;;3.64
85893;BMP280;76433;42.122;23.040;2024-03-22T03:32:07;97410.47;;;3.67
85893;BMP280;76433;42.122;23.040;2024-03-22T03:37:54;97404.13;;;3.61
85893;BMP280;76433;42.122;23.040;2024-03-22T03:43:41;97412.78;;;3.65
85893;BMP280;76433;42.122;23.040;2024-03-22T03:46:06;97414.72;;;3.61
85893;BMP280;76433;42.122;23.040;2024-03-22T03:48:31;97417.78;;;3.59
85893;BMP280;76433;42.122;23.040;2024-03-22T03:50:58;97415.53;;;3.57
85893;BMP280;76433;42.122;23.040;2024-03-22T03:53:28;97426.59;;;3.52
85893;BMP280;76433;42.122;23.040;2024-03-22T03:55:53;97419.28;;;3.37
85893;BMP280;76433;42.122;23.040;2024-03-22T04:01:40;97436.31;;;3.36
85893;BMP280;76433;42.122;23.040;2024-03-22T04:07:34;97431.78;;;3.36
85893;BMP280;76433;42.122;23.040;2024-03-22T04:09:59;97436.38;;;3.32
85893;BMP280;76433;42.122;23.040;2024-03-22T04:12:28;97436.38;;;3.32
85893;BMP280;76433;42.122;23.040;2024-03-22T04:14:54;97447.66;;;3.36
85893;BMP280;76433;42.122;23.040;2024-03-22T04:17:19;97450.75;;;3.31
85893;BMP280;76433;42.122;23.040;2024-03-22T04:23:06;97447.25;;;3.11
85893;BMP280;76433;42.122;23.040;2024-03-22T04:28:53;97471.75;;;3.18
85893;BMP280;76433;42.122;23.040;2024-03-22T04:31:19;97466.41;;;3.22
85893;BMP280;76433;42.122;23.040;2024-03-22T04:33:47;97475.50;;;3.21
85893;BMP280;76433;42.122;23.040;2024-03-22T04:36:13;97480.09;;;3.17
85893;BMP280;76433;42.122;23.040;2024-03-22T04:38:38;97489.19;;;3.16
85893;BMP280;76433;42.122;23.040;2024-03-22T04:41:04;97481.59;;;3.18
85893;BMP280;76433;42.122;23.040;2024-03-22T04:43:29;97498.97;;;3.19
85893;BMP280;76433;42.122;23.040;2024-03-22T04:49:16;97500.41;;;3.23
85893;BMP280;76433;42.122;23.040;2024-03-22T04:51:41;97498.50;;;3.24
85893;BMP280;76433;42.122;23.040;2024-03-22T04:54:07;97503.78;;;3.24
85893;BMP280;76433;42.122;23.040;2024-03-22T04:56:32;97491.66;;;3.27
85893;BMP280;76433;42.122;23.040;2024-03-22T04:58:57;97499.94;;;3.32
85893;BMP280;76433;42.122;23.040;2024-03-22T05:01:23;97492.28;;;3.38
85893;BMP280;76433;42.122;23.040;2024-03-22T05:03:49;97502.50;;;3.39
85893;BMP280;76433;42.122;23.040;2024-03-22T05:06:15;97501.56;;;3.49
85893;BMP280;76433;42.122;23.040;2024-03-22T05:08:40;97496.56;;;3.55
85893;BMP280;76433;42.122;23.040;2024-03-22T05:11:07;97503.16;;;3.70
85893;BMP280;76433;42.122;23.040;2024-03-22T05:16:54;97504.25;;;3.96
85893;BMP280;76433;42.122;23.040;2024-03-22T05:22:41;97512.00;;;4.10
85893;BMP280;76433;42.122;23.040;2024-03-22T05:25:07;97503.97;;;4.14
85893;BMP280;76433;42.122;23.040;2024-03-22T05:27:34;97512.47;;;4.25
85893;BMP280;76433;42.122;23.040;2024-03-22T05:30:00;97504.16;;;4.27
85893;BMP280;76433;42.122;23.040;2024-03-22T05:32:26;97514.63;;;4.34
85893;BMP280;76433;42.122;23.040;2024-03-22T05:34:52;97516.28;;;4.47
85893;BMP280;76433;42.122;23.040;2024-03-22T05:37:17;97518.38;;;4.56
85893;BMP280;76433;42.122;23.040;2024-03-22T05:39:43;97517.44;;;4.66
85893;BMP280;76433;42.122;23.040;2024-03-22T05:42:08;97510.91;;;4.71
85893;BMP280;76433;42.122;23.040;2024-03-22T05:44:34;97521.66;;;4.83
85893;BMP280;76433;42.122;23.040;2024-03-22T05:46:59;97513.69;;;4.83
85893;BMP280;76433;42.122;23.040;2024-03-22T05:49:25;97525.50;;;4.99
85893;BMP280;76433;42.122;23.040;2024-03-22T05:51:50;97502.03;;;4.97
85893;BMP280;76433;42.122;23.040;2024-03-22T05:54:16;97517.22;;;5.13
85893;BMP280;76433;42.122;23.040;2024-03-22T05:56:41;97521.53;;;5.27
85893;BMP280;76433;42.122;23.040;2024-03-22T05:59:06;97519.13;;;5.32
85893;BMP280;76433;42.122;23.040;2024-03-22T06:01:32;97525.69;;;5.44
85893;BMP280;76433;42.122;23.040;2024-03-22T06:03:57;97529.63;;;5.55
85893;BMP280;76433;42.122;23.040;2024-03-22T06:06:23;97529.75;;;5.65
85893;BMP280;76433;42.122;23.040;2024-03-22T06:08:51;97525.81;;;5.73
85893;BMP280;76433;42.122;23.040;2024-03-22T06:11:20;97525.97;;;5.82
85893;BMP280;76433;42.122;23.040;2024-03-22T06:13:47;97523.31;;;5.82
85893;BMP280;76433;42.122;23.040;2024-03-22T06:16:12;97516.00;;;5.86
85893;BMP280;76433;42.122;23.040;2024-03-22T06:18:37;97526.78;;;5.95
85893;BMP280;76433;42.122;23.040;2024-03-22T06:21:03;97528.59;;;5.98
85893;BMP280;76433;42.122;23.040;2024-03-22T06:23:29;97525.44;;;6.03
85893;BMP280;76433;42.122;23.040;2024-03-22T06:25:55;97524.84;;;6.12
85893;BMP280;76433;42.122;23.040;2024-03-22T06:28:21;97532.22;;;6.20
85893;BMP280;76433;42.122;23.040;2024-03-22T06:30:46;97535.88;;;6.26
85893;BMP280;76433;42.122;23.040;2024-03-22T06:33:12;97527.63;;;6.37
85893;BMP280;76433;42.122;23.040;2024-03-22T06:35:37;97526.25;;;6.45
85893;BMP280;76433;42.122;23.040;2024-03-22T06:38:03;97527.47;;;6.57
85893;BMP280;76433;42.122;23.040;2024-03-22T06:40:30;97527.53;;;6.70
85893;BMP280;76433;42.122;23.040;2024-03-22T06:42:55;97539.69;;;6.83
85893;BMP280;76433;42.122;23.040;2024-03-22T06:45:20;97523.81;;;6.92
85893;BMP280;76433;42.122;23.040;2024-03-22T06:47:46;97533.53;;;7.12
85893;BMP280;76433;42.122;23.040;2024-03-22T06:50:11;97522.13;;;7.24
85893;BMP280;76433;42.122;23.040;2024-03-22T06:52:37;97533.00;;;7.42
85893;BMP280;76433;42.122;23.040;2024-03-22T06:55:02;97534.16;;;7.54
85893;BMP280;76433;42.122;23.040;2024-03-22T06:57:28;97538.75;;;7.66
85893;BMP280;76433;42.122;23.040;2024-03-22T06:59:54;97549.25;;;7.82
85893;BMP280;76433;42.122;23.040;2024-03-22T07:02:19;97539.84;;;7.90
85893;BMP280;76433;42.122;23.040;2024-03-22T07:04:45;97541.66;;;7.93
85893;BMP280;76433;42.122;23.040;2024-03-22T07:07:10;97549.00;;;8.02
85893;BMP280;76433;42.122;23.040;2024-03-22T07:09:36;97543.94;;;8.17
85893;BMP280;76433;42.122;23.040;2024-03-22T07:12:01;97546.78;;;8.22
85893;BMP280;76433;42.122;23.040;2024-03-22T07:14:27;97542.63;;;8.21
85893;BMP280;76433;42.122;23.040;2024-03-22T07:16:52;97535.25;;;8.25
85893;BMP280;76433;42.122;23.040;2024-03-22T07:19:21;97532.09;;;8.39
85893;BMP280;76433;42.122;23.040;2024-03-22T07:21:47;97538.59;;;8.51
85893;BMP280;76433;42.122;23.040;2024-03-22T07:24:12;97543.72;;;8.67
85893;BMP280;76433;42.122;23.040;2024-03-22T07:26:38;97542.56;;;8.77
85893;BMP280;76433;42.122;23.040;2024-03-22T07:29:03;97527.91;;;8.82
85893;BMP280;76433;42.122;23.040;2024-03-22T07:31:29;97529.13;;;8.90
85893;BMP280;76433;42.122;23.040;2024-03-22T07:33:54;97523.50;;;8.97
85893;BMP280;76433;42.122;23.040;2024-03-22T07:36:20;97534.25;;;9.06
85893;BMP280;76433;42.122;23.040;2024-03-22T07:38:46;97511.31;;;8.96
85893;BMP280;76433;42.122;23.040;2024-03-22T07:41:11;97530.41;;;9.07
85893;BMP280;76433;42.122;23.040;2024-03-22T07:43:36;97523.56;;;9.06
85893;BMP280;76433;42.122;23.040;2024-03-22T07:46:01;97524.47;;;9.12
85893;BMP280;76433;42.122;23.040;2024-03-22T07:48:27;97513.78;;;9.12
85893;BMP280;76433;42.122;23.040;2024-03-22T07:51:00;97519.44;;;9.24
85893;BMP280;76433;42.122;23.040;2024-03-22T07:53:26;97520.66;;;9.32
85893;BMP280;76433;42.122;23.040;2024-03-22T07:55:52;97509.09;;;9.44
85893;BMP280;76433;42.122;23.040;2024-03-22T07:58:17;97519.53;;;9.60
85893;BMP280;76433;42.122;23.040;2024-03-22T08:00:43;97520.72;;;9.68
85893;BMP280;76433;42.122;23.040;2024-03-22T08:03:14;97520.75;;;9.77
85893;BMP280;76433;42.122;23.040;2024-03-22T08:05:39;97507.06;;;9.84
85893;BMP280;76433;42.122;23.040;2024-03-22T08:08:17;97513.91;;;10.04
85893;BMP280;76433;42.122;23.040;2024-03-22T08:11:12;97514.34;;;10.20
85893;BMP280;76433;42.122;23.040;2024-03-22T08:13:41;97512.09;;;10.28
85893;BMP280;76433;42.122;23.040;2024-03-22T08:19:29;97508.22;;;10.47
85893;BMP280;76433;42.122;23.040;2024-03-22T08:21:55;97496.03;;;10.79
85893;BMP280;76433;42.122;23.040;2024-03-22T08:24:20;97495.00;;;11.33
85893;BMP280;76433;42.122;23.040;2024-03-22T08:26:45;97507.34;;;11.64
85893;BMP280;76433;42.122;23.040;2024-03-22T08:29:13;97483.31;;;11.84
85893;BMP280;76433;42.122;23.040;2024-03-22T08:31:39;97488.16;;;12.09
85893;BMP280;76433;42.122;23.040;2024-03-22T08:34:05;97492.78;;;12.24
85893;BMP280;76433;42.122;23.040;2024-03-22T08:36:30;97483.88;;;12.47
85893;BMP280;76433;42.122;23.040;2024-03-22T08:38:56;97493.31;;;12.57
85893;BMP280;76433;42.122;23.040;2024-03-22T08:41:21;97493.28;;;12.86
85893;BMP280;76433;42.122;23.040;2024-03-22T08:43:46;97491.91;;;12.76
85893;BMP280;76433;42.122;23.040;2024-03-22T08:46:12;97489.53;;;12.99
85893;BMP280;76433;42.122;23.040;2024-03-22T08:48:37;97477.22;;;13.12
85893;BMP280;76433;42.122;23.040;2024-03-22T08:51:03;97496.94;;;13.04
85893;BMP280;76433;42.122;23.040;2024-03-22T08:53:28;97485.50;;;13.09
85893;BMP280;76433;42.122;23.040;2024-03-22T08:55:54;97473.53;;;13.10
85893;BMP280;76433;42.122;23.040;2024-03-22T08:58:19;97474.88;;;13.20
85893;BMP280;76433;42.122;23.040;2024-03-22T09:00:44;97473.25;;;13.28
85893;BMP280;76433;42.122;23.040;2024-03-22T09:03:10;97469.63;;;13.31
85893;BMP280;76433;42.122;23.040;2024-03-22T09:05:35;97466.53;;;13.38
85893;BMP280;76433;42.122;23.040;2024-03-22T09:08:02;97437.31;;;13.51
85893;BMP280;76433;42.122;23.040;2024-03-22T09:10:29;97455.56;;;13.67
85893;BMP280;76433;42.122;23.040;2024-03-22T09:12:55;97462.09;;;13.61
85893;BMP280;76433;42.122;23.040;2024-03-22T09:15:21;97467.94;;;13.80
85893;BMP280;76433;42.122;23.040;2024-03-22T09:17:47;97468.06;;;13.91
85893;BMP280;76433;42.122;23.040;2024-03-22T09:20:12;97450.00;;;13.97
85893;BMP280;76433;42.122;23.040;2024-03-22T09:22:38;97448.94;;;13.89
85893;BMP280;76433;42.122;23.040;2024-03-22T09:25:05;97451.91;;;13.91
85893;BMP280;76433;42.122;23.040;2024-03-22T09:27:31;97441.72;;;14.06
85893;BMP280;76433;42.122;23.040;2024-03-22T09:29:57;97439.72;;;14.01
85893;BMP280;76433;42.122;23.040;2024-03-22T09:32:23;97455.88;;;14.01
85893;BMP280;76433;42.122;23.040;2024-03-22T09:34:49;97457.63;;;14.04
85893;BMP280;76433;42.122;23.040;2024-03-22T09:37:17;97451.31;;;14.13
85893;BMP280;76433;42.122;23.040;2024-03-22T09:39:43;97454.03;;;14.13
85893;BMP280;76433;42.122;23.040;2024-03-22T09:42:13;97436.09;;;14.10
85893;BMP280;76433;42.122;23.040;2024-03-22T09:44:47;97429.34;;;14.20
85893;BMP280;76433;42.122;23.040;2024-03-22T09:47:14;97435.88;;;14.13
85893;BMP280;76433;42.122;23.040;2024-03-22T09:49:40;97448.22;;;14.20
85893;BMP280;76433;42.122;23.040;2024-03-22T09:52:09;97447.75;;;14.21
85893;BMP280;76433;42.122;23.040;2024-03-22T09:54:35;97451.22;;;14.27
85893;BMP280;76433;42.122;23.040;2024-03-22T09:57:01;97421.63;;;14.38
85893;BMP280;76433;42.122;23.040;2024-03-22T09:59:26;97443.91;;;14.33
85893;BMP280;76433;42.122;23.040;2024-03-22T10:01:53;97415.97;;;14.36
85893;BMP280;76433;42.122;23.040;2024-03-22T10:04:18;97398.75;;;14.28
85893;BMP280;76433;42.122;23.040;2024-03-22T10:06:46;97427.50;;;14.37
85893;BMP280;76433;42.122;23.040;2024-03-22T10:09:12;97402.63;;;14.22
85893;BMP280;76433;42.122;23.040;2024-03-22T10:11:38;97416.66;;;14.31
85893;BMP280;76433;42.122;23.040;2024-03-22T10:14:03;97438.94;;;14.26
85893;BMP280;76433;42.122;23.040;2024-03-22T10:16:39;97409.53;;;14.28
85893;BMP280;76433;42.122;23.040;2024-03-22T10:19:04;97407.88;;;14.36
85893;BMP280;76433;42.122;23.040;2024-03-22T10:21:29;97413.16;;;14.62
85893;BMP280;76433;42.122;23.040;2024-03-22T10:23:56;97425.38;;;14.58
85893;BMP280;76433;42.122;23.040;2024-03-22T10:26:22;97423.41;;;14.53
85893;BMP280;76433;42.122;23.040;2024-03-22T10:28:47;97405.13;;;14.68
85893;BMP280;76433;42.122;23.040;2024-03-22T10:31:13;97404.84;;;14.66
85893;BMP280;76433;42.122;23.040;2024-03-22T10:33:40;97406.38;;;14.78
85893;BMP280;76433;42.122;23.040;2024-03-22T10:36:06;97397.38;;;14.92
85893;BMP280;76433;42.122;23.040;2024-03-22T10:38:32;97407.13;;;14.84
85893;BMP280;76433;42.122;23.040;2024-03-22T10:40:59;97395.88;;;14.91
85893;BMP280;76433;42.122;23.040;2024-03-22T10:43:25;97390.47;;;14.91
85893;BMP280;76433;42.122;23.040;2024-03-22T10:45:51;97405.91;;;14.85
85893;BMP280;76433;42.122;23.040;2024-03-22T10:48:21;97374.28;;;14.91
85893;BMP280;76433;42.122;23.040;2024-03-22T10:50:59;97382.13;;;14.89
85893;BMP280;76433;42.122;23.040;2024-03-22T10:53:30;97374.78;;;14.90
85893;BMP280;76433;42.122;23.040;2024-03-22T10:55:57;97375.06;;;15.08
85893;BMP280;76433;42.122;23.040;2024-03-22T10:58:25;97380.75;;;15.16
85893;BMP280;76433;42.122;23.040;2024-03-22T11:00:59;97374.38;;;15.30
85893;BMP280;76433;42.122;23.040;2024-03-22T11:03:25;97380.28;;;15.29
85893;BMP280;76433;42.122;23.040;2024-03-22T11:05:57;97371.69;;;15.24
85893;BMP280;76433;42.122;23.040;2024-03-22T11:08:27;97370.22;;;15.57
85893;BMP280;76433;42.122;23.040;2024-03-22T11:10:54;97346.16;;;15.48
85893;BMP280;76433;42.122;23.040;2024-03-22T11:13:19;97372.69;;;15.83
85893;BMP280;76433;42.122;23.040;2024-03-22T11:15:49;97345.66;;;15.88
85893;BMP280;76433;42.122;23.040;2024-03-22T11:18:15;97362.84;;;16.13
85893;BMP280;76433;42.122;23.040;2024-03-22T11:20:42;97346.63;;;16.13
85893;BMP280;76433;42.122;23.040;2024-03-22T11:23:09;97344.13;;;16.15
85893;BMP280;76433;42.122;23.040;2024-03-22T11:25:34;97351.44;;;16.37
85893;BMP280;76433;42.122;23.040;2024-03-22T11:28:00;97347.00;;;16.45
85893;BMP280;76433;42.122;23.040;2024-03-22T11:30:28;97348.41;;;16.57
85893;BMP280;76433;42.122;23.040;2024-03-22T11:32:54;97347.91;;;16.64
85893;BMP280;76433;42.122;23.040;2024-03-22T11:35:19;97336.53;;;16.77
85893;BMP280;76433;42.122;23.040;2024-03-22T11:37:45;97340.59;;;17.00
85893;BMP280;76433;42.122;23.040;2024-03-22T11:40:13;97333.72;;;17.29
85893;BMP280;76433;42.122;23.040;2024-03-22T11:42:40;97310.84;;;17.54
85893;BMP280;76433;42.122;23.040;2024-03-22T11:45:08;97339.94;;;17.78
85893;BMP280;76433;42.122;23.040;2024-03-22T11:47:34;97307.78;;;18.12
85893;BMP280;76433;42.122;23.040;2024-03-22T11:50:01;97343.00;;;18.36
85893;BMP280;76433;42.122;23.040;2024-03-22T11:52:26;97326.75;;;18.74
85893;BMP280;76433;42.122;23.040;2024-03-22T11:54:52;97305.69;;;19.12
85893;BMP280;76433;42.122;23.040;2024-03-22T11:57:18;97325.22;;;19.42
85893;BMP280;76433;42.122;23.040;2024-03-22T11:59:43;97311.22;;;19.51
85893;BMP280;76433;42.122;23.040;2024-03-22T12:02:10;97324.00;;;19.96
85893;BMP280;76433;42.122;23.040;2024-03-22T12:04:35;97311.28;;;20.24
85893;BMP280;76433;42.122;23.040;2024-03-22T12:07:00;97330.88;;;20.57
85893;BMP280;76433;42.122;23.040;2024-03-22T12:09:26;97316.38;;;20.75
85893;BMP280;76433;42.122;23.040;2024-03-22T12:11:51;97315.31;;;21.19
85893;BMP280;76433;42.122;23.040;2024-03-22T12:14:20;97313.78;;;21.60
85893;BMP280;76433;42.122;23.040;2024-03-22T12:16:45;97307.59;;;21.95
85893;BMP280;76433;42.122;23.040;2024-03-22T12:19:10;97307.44;;;22.01
85893;BMP280;76433;42.122;23.040;2024-03-22T12:21:36;97304.53;;;22.06
85893;BMP280;76433;42.122;23.040;2024-03-22T12:24:01;97312.44;;;22.18
85893;BMP280;76433;42.122;23.040;2024-03-22T12:26:27;97297.09;;;22.14
85893;BMP280;76433;42.122;23.040;2024-03-22T12:28:52;97278.91;;;22.17
85893;BMP280;76433;42.122;23.040;2024-03-22T12:31:18;97295.72;;;22.29
85893;BMP280;76433;42.122;23.040;2024-03-22T12:33:44;97286.28;;;22.52
85893;BMP280;76433;42.122;23.040;2024-03-22T12:36:10;97281.97;;;22.80
85893;BMP280;76433;42.122;23.040;2024-03-22T12:38:35;97268.44;;;23.04
85893;BMP280;76433;42.122;23.040;2024-03-22T12:41:01;97302.00;;;23.13
85893;BMP280;76433;42.122;23.040;2024-03-22T12:43:26;97275.00;;;23.09
85893;BMP280;76433;42.122;23.040;2024-03-22T12:45:52;97275.75;;;22.94
85893;BMP280;76433;42.122;23.040;2024-03-22T12:48:17;97259.34;;;22.87
85893;BMP280;76433;42.122;23.040;2024-03-22T12:50:43;97277.22;;;23.18
85893;BMP280;76433;42.122;23.040;2024-03-22T12:53:08;97270.56;;;23.59
85893;BMP280;76433;42.122;23.040;2024-03-22T12:55:34;97276.06;;;23.91
85893;BMP280;76433;42.122;23.040;2024-03-22T12:57:59;97266.00;;;23.94
85893;BMP280;76433;42.122;23.040;2024-03-22T13:00:24;97266.94;;;23.89
85893;BMP280;76433;42.122;23.040;2024-03-22T13:02:50;97273.91;;;24.22
85893;BMP280;76433;42.122;23.040;2024-03-22T13:05:16;97239.78;;;24.40
85893;BMP280;76433;42.122;23.040;2024-03-22T13:07:42;97260.53;;;24.51
85893;BMP280;76433;42.122;23.040;2024-03-22T13:10:08;97257.13;;;24.18
85893;BMP280;76433;42.122;23.040;2024-03-22T13:12:34;97248.91;;;24.18
85893;BMP280;76433;42.122;23.040;2024-03-22T13:15:00;97248.56;;;24.39
85893;BMP280;76433;42.122;23.040;2024-03-22T13:24:20;97239.81;;;24.82
85893;BMP280;76433;42.122;23.040;2024-03-22T13:26:45;97224.97;;;24.68
85893;BMP280;76433;42.122;23.040;2024-03-22T13:29:11;97232.84;;;24.64
85893;BMP280;76433;42.122;23.040;2024-03-22T13:31:39;97246.75;;;24.83
85893;BMP280;76433;42.122;23.040;2024-03-22T13:34:05;97237.94;;;25.10
85893;BMP280;76433;42.122;23.040;2024-03-22T13:36:31;97232.16;;;24.98
85893;BMP280;76433;42.122;23.040;2024-03-22T13:39:01;97221.91;;;24.81
85893;BMP280;76433;42.122;23.040;2024-03-22T13:41:27;97221.53;;;25.19
85893;BMP280;76433;42.122;23.040;2024-03-22T13:43:53;97232.66;;;25.04
85893;BMP280;76433;42.122;23.040;2024-03-22T13:46:18;97230.91;;;24.57
85893;BMP280;76433;42.122;23.040;2024-03-22T13:48:43;97234.88;;;24.64
85893;BMP280;76433;42.122;23.040;2024-03-22T13:51:09;97233.22;;;24.85
85893;BMP280;76433;42.122;23.040;2024-03-22T13:53:36;97225.97;;;25.15
85893;BMP280;76433;42.122;23.040;2024-03-22T13:56:02;97218.69;;;24.92
85893;BMP280;76433;42.122;23.040;2024-03-22T13:58:27;97223.06;;;24.95
85893;BMP280;76433;42.122;23.040;2024-03-22T14:00:53;97218.38;;;25.40
85893;BMP280;76433;42.122;23.040;2024-03-22T14:03:18;97210.13;;;25.57
85893;BMP280;76433;42.122;23.040;2024-03-22T14:09:12;97212.59;;;25.63
85893;BMP280;76433;42.122;23.040;2024-03-22T14:11:39;97206.06;;;25.58
85893;BMP280;76433;42.122;23.040;2024-03-22T14:17:25;97212.91;;;25.23
85893;BMP280;76433;42.122;23.040;2024-03-22T14:19:51;97213.22;;;25.10
85893;BMP280;76433;42.122;23.040;2024-03-22T14:22:17;97209.22;;;25.11
85893;BMP280;76433;42.122;23.040;2024-03-22T14:24:43;97205.78;;;25.54
85893;BMP280;76433;42.122;23.040;2024-03-22T14:30:30;97197.22;;;26.13
85893;BMP280;76433;42.122;23.040;2024-03-22T14:32:55;97203.75;;;26.18
85893;BMP280;76433;42.122;23.040;2024-03-22T14:35:21;97208.94;;;26.14
85893;BMP280;76433;42.122;23.040;2024-03-22T14:38:17;97208.03;;;26.02
85893;BMP280;76433;42.122;23.040;2024-03-22T14:40:52;97200.00;;;25.86
85893;BMP280;76433;42.122;23.040;2024-03-22T14:43:18;97212.75;;;25.65
85893;BMP280;76433;42.122;23.040;2024-03-22T14:45:44;97195.75;;;25.32
85893;BMP280;76433;42.122;23.040;2024-03-22T14:48:09;97205.31;;;24.96
85893;BMP280;76433;42.122;23.040;2024-03-22T14:50:37;97201.75;;;24.86
85893;BMP280;76433;42.122;23.040;2024-03-22T14:53:06;97204.41;;;24.77
85893;BMP280;76433;42.122;23.040;2024-03-22T14:55:32;97198.75;;;24.92
85893;BMP280;76433;42.122;23.040;2024-03-22T14:57:57;97202.56;;;24.79
85893;BMP280;76433;42.122;23.040;2024-03-22T15:00:52;97193.22;;;24.82
85893;BMP280;76433;42.122;23.040;2024-03-22T15:03:17;97201.53;;;25.09
85893;BMP280;76433;42.122;23.040;2024-03-22T15:05:53;97202.78;;;25.25
85893;BMP280;76433;42.122;23.040;2024-03-22T15:08:20;97197.88;;;25.41
85893;BMP280;76433;42.122;23.040;2024-03-22T15:10:46;97197.59;;;25.03
85893;BMP280;76433;42.122;23.040;2024-03-22T15:13:12;97202.38;;;24.77
85893;BMP280;76433;42.122;23.040;2024-03-22T15:15:38;97200.03;;;24.57
85893;BMP280;76433;42.122;23.040;2024-03-22T15:18:03;97202.38;;;24.60
85893;BMP280;76433;42.122;23.040;2024-03-22T15:20:31;97197.63;;;24.36
85893;BMP280;76433;42.122;23.040;2024-03-22T15:22:56;97201.31;;;24.56